Strona główna
METAR-TAF:

METAR-TAF

Lotnisko :

Port lotniczy Nawakszut

Nawakszut, Mauretania

Szerokość geograficzna: 18-18-36N, Długość geograficzna: 015-58-11W, wysokość: 3 m

Aktualna obserwacja pogody

Raport powstał 19 minut temu, godzina 00:00 UTC
Wiatr 8 kt od północny zachód
Temperatura 28°C
Wilgotność 74%
Ciśnienie 1010 hPa
Widzialność: 8000 m

METAR: GQNO 240000Z 32008KT 8000 NSC 28/23 Q1010 NOSIG

czas: 00:19 (00:19 UTC)

Prognoza

Raport powstał 1 godzina i 19 minut temu, godzina 23:00 UTC
Prognoza ważna od 24 godzina 00 UTC do 25 godzina 06 UTC
Wiatr 10 kt od północno-północny zachód
Widzialność: 7000 m
Stopniowe zmiany
od 24 godzina 06 UTC do 24 godzina 09 UTC
Wiatr 13 kt od zachodnio-południowy zachód

TAF: GQNO 232300Z 2400/2506 33010KT 7000 NSC BECMG 2406/2409 25013KT

Obserwacja i prognoza pogody dla ponad 4000 lotnisk (raport METAR i TAF).

Dostępne stacje oznaczono żółtymi i czerwonymi punktami na mapie.

Najedź kursorem aby zobaczyć nazwę stacji.

Kliknij aby zobaczyć obserwacje i prognozy pogody.

Aby zmienić mapę: kliknij na zielony przycisk z czarnym krzyżykiem, aby powiększyć; na zielony przycisk z myślnikiem, aby pomniejszyć; na zielone strzałki, aby przejść do map sąsiednich.


METAR-TAF: